createdAt,value
2019-04-10T00:00:37.271Z,56.13
2019-04-10T00:03:06.317Z,59.15
2019-04-10T00:05:36.102Z,56.50
2019-04-10T00:08:06.146Z,66.75
2019-04-10T00:10:36.107Z,49.35
2019-04-10T00:13:06.723Z,57.93
2019-04-10T00:15:35.331Z,61.25
2019-04-10T00:18:03.968Z,56.02
2019-04-10T00:20:32.589Z,58.83
2019-04-10T00:23:02.429Z,57.10
2019-04-10T00:25:31.312Z,47.90
2019-04-10T00:28:00.849Z,48.45
2019-04-10T00:30:29.944Z,47.75
2019-04-10T00:32:58.592Z,53.08
2019-04-10T00:35:27.639Z,49.58
2019-04-10T00:37:57.466Z,45.98
2019-04-10T00:40:26.266Z,44.73
2019-04-10T00:42:57.063Z,46.92
2019-04-10T00:45:25.234Z,42.62
2019-04-10T00:47:53.808Z,44.30
2019-04-10T00:50:22.370Z,45.80
2019-04-10T00:52:51.048Z,46.23
2019-04-10T00:55:19.717Z,44.03
2019-04-10T00:57:48.415Z,40.20
2019-04-10T01:00:17.389Z,48.55
2019-04-10T01:02:47.047Z,50.38
2019-04-10T01:05:17.307Z,46.05
2019-04-10T01:07:46.995Z,47.23
2019-04-10T01:10:16.291Z,47.73
2019-04-10T01:12:45.946Z,51.08
2019-04-10T01:15:14.847Z,40.38
2019-04-10T01:17:43.479Z,45.52
2019-04-10T01:20:12.124Z,49.80
2019-04-10T01:22:41.491Z,46.45
2019-04-10T01:25:10.374Z,40.73
2019-04-10T01:27:41.033Z,40.55
2019-04-10T01:30:10.463Z,51.10
2019-04-10T01:32:39.756Z,53.13
2019-04-10T01:35:09.825Z,53.15
2019-04-10T01:37:48.806Z,64.75
2019-04-10T01:40:10.724Z,40.95
2019-04-10T01:42:39.377Z,59.58
2019-04-10T01:45:09.023Z,66.02
2019-04-10T01:47:37.781Z,53.95
2019-04-10T01:50:06.664Z,61.98
2019-04-10T01:52:35.368Z,60.10
2019-04-10T01:55:18.168Z,63.17
2019-04-10T02:00:06.756Z,63.78
2019-04-10T02:02:37.132Z,67.27
2019-04-10T02:05:06.213Z,63.40
2019-04-10T02:07:34.716Z,55.52
2019-04-10T02:10:03.842Z,60.88
2019-04-10T02:12:32.605Z,79.90
2019-04-10T02:15:01.423Z,49.85
2019-04-10T02:17:30.781Z,60.00
2019-04-10T02:20:00.718Z,58.73
2019-04-10T02:22:29.452Z,62.98
2019-04-10T02:24:58.172Z,78.70
2019-04-10T02:27:26.768Z,72.10
2019-04-10T02:29:55.777Z,95.12
2019-04-10T02:32:26.275Z,60.25
2019-04-10T02:34:55.250Z,49.70
2019-04-10T02:37:25.081Z,46.42
2019-04-10T02:39:59.928Z,56.50
2019-04-10T02:42:24.802Z,63.87
2019-04-10T02:44:54.172Z,57.55
2019-04-10T02:47:23.119Z,81.67
2019-04-10T02:49:52.252Z,71.00
2019-04-10T02:52:22.537Z,59.83
2019-04-10T02:54:51.267Z,64.55
2019-04-10T02:57:21.367Z,81.47
2019-04-10T02:59:51.218Z,54.23
2019-04-10T03:02:20.300Z,108.12
2019-04-10T03:04:49.215Z,54.50
2019-04-10T03:07:19.770Z,105.25
2019-04-10T03:10:00.980Z,93.75
2019-04-10T03:12:19.730Z,72.32
2019-04-10T03:14:49.853Z,82.70
2019-04-10T03:17:19.711Z,96.05
2019-04-10T03:19:48.308Z,124.67
2019-04-10T03:22:16.805Z,91.42
2019-04-10T03:24:46.230Z,91.57
2019-04-10T03:27:16.277Z,77.95
2019-04-10T03:29:46.328Z,90.00
2019-04-10T03:32:36.521Z,75.78
2019-04-10T03:35:14.786Z,85.45
2019-04-10T03:37:44.553Z,69.07
2019-04-10T03:40:13.662Z,93.58
2019-04-10T03:42:43.305Z,67.17
2019-04-10T03:45:12.008Z,84.58
2019-04-10T03:47:41.753Z,83.45
2019-04-10T03:50:10.995Z,73.05
2019-04-10T03:52:39.551Z,72.27
2019-04-10T03:55:08.513Z,83.20
2019-04-10T03:57:37.065Z,72.15
2019-04-10T04:00:06.899Z,70.62
2019-04-10T04:02:35.954Z,82.80
2019-04-10T04:05:06.576Z,82.30
2019-04-10T04:07:35.265Z,101.30
2019-04-10T04:10:06.456Z,95.35
2019-04-10T04:12:35.167Z,97.27
2019-04-10T04:15:05.370Z,89.10
2019-04-10T04:17:34.077Z,108.15
2019-04-10T04:20:02.753Z,123.82
2019-04-10T04:22:31.316Z,88.27
2019-04-10T04:25:00.288Z,85.95
2019-04-10T04:27:29.277Z,95.53
2019-04-10T04:29:58.079Z,83.67
2019-04-10T04:32:26.689Z,98.00
2019-04-10T04:34:56.308Z,87.47
2019-04-10T04:37:25.783Z,88.62
2019-04-10T04:39:54.630Z,75.62
2019-04-10T04:42:24.421Z,107.30
2019-04-10T04:44:54.227Z,98.72
2019-04-10T04:47:22.829Z,82.95
2019-04-10T04:49:52.343Z,84.15
2019-04-10T04:52:21.093Z,91.67
2019-04-10T04:54:49.874Z,89.67
2019-04-10T04:57:18.688Z,95.47
2019-04-10T04:59:48.272Z,77.82
2019-04-10T05:02:17.743Z,76.82
2019-04-10T05:04:46.640Z,75.70
2019-04-10T05:07:15.130Z,81.47
2019-04-10T05:09:44.026Z,88.37
2019-04-10T05:12:13.380Z,79.50
2019-04-10T05:14:42.116Z,68.35
2019-04-10T05:17:10.674Z,89.83
2019-04-10T05:19:39.165Z,68.50
2019-04-10T05:22:08.056Z,61.50
2019-04-10T05:24:36.661Z,69.58
2019-04-10T05:27:05.748Z,72.00
2019-04-10T05:29:34.626Z,74.12
2019-04-10T05:32:03.189Z,80.42
2019-04-10T05:34:32.445Z,70.62
2019-04-10T05:37:01.004Z,80.85
2019-04-10T05:39:39.813Z,72.70
2019-04-10T05:42:01.948Z,76.10
2019-04-10T05:44:30.201Z,83.42
2019-04-10T05:46:59.060Z,87.33
2019-04-10T05:49:28.855Z,80.50
2019-04-10T05:51:57.691Z,92.35
2019-04-10T05:54:26.979Z,81.12
2019-04-10T05:56:55.799Z,91.72
2019-04-10T05:59:24.332Z,79.65
2019-04-10T06:01:52.979Z,76.10
2019-04-10T06:04:21.565Z,74.45
2019-04-10T06:06:50.218Z,73.97
2019-04-10T06:09:18.927Z,79.95
2019-04-10T06:11:47.468Z,84.75
2019-04-10T06:14:16.033Z,85.72
2019-04-10T06:16:44.778Z,74.07
2019-04-10T06:19:13.653Z,82.85
2019-04-10T06:21:42.505Z,78.17
2019-04-10T06:24:11.930Z,74.87
2019-04-10T06:26:40.759Z,83.17
2019-04-10T06:29:09.267Z,76.00
2019-04-10T06:31:39.062Z,88.40
2019-04-10T06:34:08.924Z,89.25
2019-04-10T06:36:37.717Z,76.10
2019-04-10T06:39:06.840Z,86.75
2019-04-10T06:41:35.386Z,96.42
2019-04-10T06:44:04.131Z,98.15
2019-04-10T06:46:32.779Z,91.12
2019-04-10T06:49:01.288Z,94.87
2019-04-10T06:51:29.980Z,81.42
2019-04-10T06:54:02.837Z,105.22
2019-04-10T06:56:29.198Z,82.80
2019-04-10T06:58:58.332Z,98.72
2019-04-10T07:01:39.033Z,93.65
2019-04-10T07:04:03.631Z,105.25
2019-04-10T07:06:44.626Z,71.97
2019-04-10T07:08:59.006Z,81.25
2019-04-10T07:11:30.521Z,111.37
2019-04-10T07:13:58.529Z,97.12
2019-04-10T07:16:31.507Z,82.55
2019-04-10T07:19:01.619Z,104.45
2019-04-10T07:21:30.681Z,91.55
2019-04-10T07:24:04.579Z,88.50
2019-04-10T07:26:38.134Z,83.22
2019-04-10T07:29:00.578Z,103.38
2019-04-10T07:31:30.340Z,104.67
2019-04-10T07:33:59.960Z,80.90
2019-04-10T07:36:29.435Z,80.65
2019-04-10T07:38:59.178Z,80.85
2019-04-10T07:41:29.265Z,82.22
2019-04-10T07:43:58.350Z,85.80
2019-04-10T07:46:28.248Z,86.87
2019-04-10T07:48:57.197Z,88.80
2019-04-10T07:51:26.026Z,84.55
2019-04-10T07:53:55.590Z,76.67
2019-04-10T07:56:24.613Z,77.30
2019-04-10T07:58:53.826Z,83.87
2019-04-10T08:01:22.608Z,72.97
2019-04-10T08:03:52.459Z,79.12
2019-04-10T08:06:21.401Z,74.90
2019-04-10T08:08:51.065Z,71.17
2019-04-10T08:11:19.992Z,78.35
2019-04-10T08:13:49.237Z,72.42
2019-04-10T08:16:18.924Z,76.02
2019-04-10T08:18:47.821Z,83.45
2019-04-10T08:21:17.658Z,80.30
2019-04-10T08:23:46.558Z,69.60
2019-04-10T08:26:16.221Z,72.87
2019-04-10T08:28:45.411Z,79.20
2019-04-10T08:31:14.939Z,70.47
2019-04-10T08:33:44.064Z,75.55
2019-04-10T08:36:13.023Z,85.72
2019-04-10T08:38:42.121Z,80.05
2019-04-10T08:41:11.031Z,77.00
2019-04-10T08:43:39.731Z,80.57
2019-04-10T08:46:08.732Z,72.17
2019-04-10T08:48:37.461Z,76.53
2019-04-10T08:51:06.586Z,69.05
2019-04-10T08:53:36.224Z,72.08
2019-04-10T08:56:06.502Z,74.27
2019-04-10T08:58:35.281Z,78.60
2019-04-10T09:01:05.023Z,68.87
2019-04-10T09:03:33.724Z,77.70
2019-04-10T09:06:02.908Z,73.67
2019-04-10T09:08:31.653Z,71.25
2019-04-10T09:11:00.953Z,69.32
2019-04-10T09:13:30.670Z,65.72
2019-04-10T09:16:00.327Z,69.90
2019-04-10T09:18:29.482Z,63.85
2019-04-10T09:20:59.320Z,67.32
2019-04-10T09:23:37.934Z,66.75
2019-04-10T09:25:59.565Z,66.72
2019-04-10T09:28:28.519Z,62.70
2019-04-10T09:30:57.430Z,70.90
2019-04-10T09:33:28.298Z,59.48
2019-04-10T09:35:57.151Z,68.12
2019-04-10T09:38:26.463Z,61.92
2019-04-10T09:40:55.299Z,68.22
2019-04-10T09:43:23.855Z,63.52
2019-04-10T09:45:53.565Z,70.17
2019-04-10T09:48:22.294Z,64.75
2019-04-10T09:50:50.911Z,63.10
2019-04-10T09:53:19.480Z,60.23
2019-04-10T09:55:49.013Z,59.18
2019-04-10T09:58:17.683Z,58.30
2019-04-10T10:00:46.662Z,56.85
2019-04-10T10:03:15.349Z,52.55
2019-04-10T10:05:44.634Z,51.95
2019-04-10T10:08:14.212Z,55.12
2019-04-10T10:10:43.175Z,53.87
2019-04-10T10:13:12.977Z,53.63
2019-04-10T10:15:41.755Z,50.90
2019-04-10T10:18:10.987Z,51.60
2019-04-10T10:20:39.746Z,53.83
2019-04-10T10:23:09.534Z,50.63
2019-04-10T10:25:39.368Z,46.50
2019-04-10T10:28:09.088Z,47.48
2019-04-10T10:30:37.835Z,50.50
2019-04-10T10:33:07.641Z,47.27
2019-04-10T10:35:36.369Z,46.95
2019-04-10T10:38:05.450Z,51.18
2019-04-10T10:40:34.161Z,51.18
2019-04-10T10:43:02.820Z,46.45
2019-04-10T10:45:31.464Z,48.70
2019-04-10T10:48:01.198Z,56.85
2019-04-10T10:50:31.033Z,48.70
2019-04-10T10:52:59.837Z,45.50
2019-04-10T10:55:29.612Z,47.08
2019-04-10T10:57:59.404Z,49.03
2019-04-10T11:00:29.418Z,56.00
2019-04-10T11:02:58.456Z,61.30
2019-04-10T11:05:27.348Z,65.80
2019-04-10T11:07:57.267Z,51.83
2019-04-10T11:10:27.502Z,45.67
2019-04-10T11:12:56.325Z,45.48
2019-04-10T11:15:26.127Z,53.40
2019-04-10T11:17:55.089Z,46.50
2019-04-10T11:20:24.168Z,48.45
2019-04-10T11:22:53.694Z,46.92
2019-04-10T11:25:22.365Z,45.48
2019-04-10T11:27:51.613Z,47.75
2019-04-10T11:30:20.687Z,45.30
2019-04-10T11:32:50.733Z,45.92
2019-04-10T11:35:21.644Z,46.92
2019-04-10T11:37:53.309Z,43.60
2019-04-10T11:40:20.989Z,45.03
2019-04-10T11:42:51.535Z,42.58
2019-04-10T11:45:20.204Z,50.75
2019-04-10T11:47:51.325Z,55.67
2019-04-10T11:50:19.164Z,45.00
2019-04-10T11:57:49.665Z,41.10
2019-04-10T12:00:23.752Z,46.55
2019-04-10T12:02:52.862Z,46.77
2019-04-10T12:05:23.882Z,47.53
2019-04-10T12:12:54.222Z,57.13
2019-04-10T12:15:23.906Z,46.18
2019-04-10T12:17:52.525Z,47.65
2019-04-10T12:20:21.301Z,45.30
2019-04-10T12:22:49.883Z,54.08
2019-04-10T12:25:18.696Z,72.85
2019-04-10T12:27:47.462Z,75.80
2019-04-10T12:30:17.493Z,53.15
2019-04-10T12:32:47.447Z,45.55
2019-04-10T12:35:17.109Z,41.58
2019-04-10T12:37:45.796Z,45.20
2019-04-10T12:40:14.863Z,53.28
2019-04-10T12:42:44.155Z,76.80
2019-04-10T12:45:13.552Z,53.65
2019-04-10T12:47:42.153Z,81.22
2019-04-10T12:50:12.141Z,82.30
2019-04-10T12:52:40.912Z,72.58
2019-04-10T12:55:10.211Z,62.03
2019-04-10T12:57:39.162Z,46.53
2019-04-10T13:00:12.360Z,39.98
2019-04-10T13:02:41.013Z,41.80
2019-04-10T13:05:09.826Z,40.60
2019-04-10T13:07:38.426Z,40.83
2019-04-10T13:10:08.596Z,40.10
2019-04-10T13:12:37.630Z,46.65
2019-04-10T13:15:08.213Z,40.17
2019-04-10T13:17:36.769Z,43.20
2019-04-10T13:20:09.280Z,41.58
2019-04-10T13:22:38.103Z,44.13
2019-04-10T13:25:08.141Z,43.02
2019-04-10T13:27:36.905Z,35.80
2019-04-10T13:30:12.597Z,36.60
2019-04-10T13:32:40.281Z,37.80
2019-04-10T13:35:10.194Z,35.23
2019-04-10T13:37:38.991Z,36.28
2019-04-10T13:40:07.964Z,36.48
2019-04-10T13:42:37.164Z,37.38
2019-04-10T13:45:08.130Z,35.55
2019-04-10T13:47:36.792Z,36.23
2019-04-10T13:50:08.721Z,34.53
2019-04-10T13:52:39.166Z,37.78
2019-04-10T13:55:08.903Z,45.08
2019-04-10T13:57:39.202Z,40.45
2019-04-10T14:00:11.285Z,40.63
2019-04-10T14:02:40.045Z,40.30
2019-04-10T14:05:11.616Z,36.93
2019-04-10T14:07:40.371Z,37.10
2019-04-10T14:10:10.500Z,36.03
2019-04-10T14:12:39.263Z,37.17
2019-04-10T14:15:08.057Z,41.25
2019-04-10T14:17:37.618Z,36.58
2019-04-10T14:20:07.005Z,38.98
2019-04-10T14:22:37.956Z,33.92
2019-04-10T14:25:09.593Z,31.55
2019-04-10T14:27:38.491Z,31.25
2019-04-10T14:30:11.322Z,32.53
2019-04-10T14:32:40.363Z,35.48
2019-04-10T14:35:09.887Z,34.75
2019-04-10T14:37:38.603Z,29.75
2019-04-10T14:40:09.424Z,31.75
2019-04-10T14:42:38.385Z,32.10
2019-04-10T14:45:09.005Z,31.60
2019-04-10T14:47:37.920Z,32.87
2019-04-10T14:50:07.528Z,33.45
2019-04-10T14:52:37.147Z,33.70
2019-04-10T14:55:06.310Z,31.23
2019-04-10T14:57:35.483Z,30.17
2019-04-10T15:00:08.606Z,33.18
2019-04-10T15:02:37.222Z,30.80
2019-04-10T15:05:08.075Z,36.23
2019-04-10T15:07:37.309Z,31.82
2019-04-10T15:10:06.897Z,32.67
2019-04-10T15:12:35.581Z,33.75
2019-04-10T15:15:05.443Z,32.13
2019-04-10T15:17:34.140Z,36.45
2019-04-10T15:20:02.832Z,32.10
2019-04-10T15:22:31.766Z,38.67
2019-04-10T15:25:01.417Z,35.70
2019-04-10T15:27:30.233Z,36.45
2019-04-10T15:29:58.890Z,34.45
2019-04-10T15:32:27.505Z,33.95
2019-04-10T15:34:56.128Z,33.23
2019-04-10T15:37:24.918Z,32.30
2019-04-10T15:39:53.950Z,33.05
2019-04-10T15:42:23.767Z,34.33
2019-04-10T15:44:52.482Z,36.30
2019-04-10T15:47:23.093Z,35.92
2019-04-10T15:49:51.607Z,37.95
2019-04-10T15:52:20.335Z,34.67
2019-04-10T15:54:49.941Z,34.05
2019-04-10T15:57:18.938Z,31.00
2019-04-10T15:59:48.314Z,29.57
2019-04-10T16:02:16.994Z,30.23
2019-04-10T16:04:45.647Z,33.10
2019-04-10T16:07:14.966Z,26.25
2019-04-10T16:09:49.882Z,26.60
2019-04-10T16:12:16.587Z,26.70
2019-04-10T16:14:46.479Z,26.48
2019-04-10T16:17:29.377Z,30.50
2019-04-10T16:19:59.877Z,24.77
2019-04-10T16:22:31.129Z,26.37
2019-04-10T16:25:01.581Z,25.05
2019-04-10T16:27:30.714Z,31.70
2019-04-10T16:30:02.060Z,27.22
2019-04-10T16:32:30.060Z,27.75
2019-04-10T16:34:58.984Z,25.55
2019-04-10T16:37:27.726Z,28.32
2019-04-10T16:40:00.320Z,28.40
2019-04-10T16:42:26.806Z,26.12
2019-04-10T16:44:55.475Z,25.95
2019-04-10T16:47:24.180Z,24.57
2019-04-10T16:49:53.113Z,24.98
2019-04-10T16:52:23.024Z,24.98
2019-04-10T16:54:51.833Z,27.32
2019-04-10T16:57:20.713Z,26.12
2019-04-10T16:59:49.419Z,30.10
2019-04-10T17:02:18.064Z,28.62
2019-04-10T17:04:46.696Z,24.92
2019-04-10T17:07:15.484Z,23.83
2019-04-10T17:09:45.483Z,23.62
2019-04-10T17:12:14.344Z,24.43
2019-04-10T17:14:43.899Z,27.07
2019-04-10T17:17:12.659Z,25.50
2019-04-10T17:19:50.474Z,29.10
2019-04-10T17:22:11.803Z,28.42
2019-04-10T17:24:41.989Z,31.82
2019-04-10T17:27:11.166Z,27.40
2019-04-10T17:29:40.984Z,27.45
2019-04-10T17:32:11.000Z,28.65
2019-04-10T17:34:40.973Z,30.17
2019-04-10T17:37:09.816Z,25.00
2019-04-10T17:39:39.634Z,26.23
2019-04-10T17:42:08.468Z,29.60
2019-04-10T17:44:38.115Z,29.42
2019-04-10T17:47:09.550Z,25.68
2019-04-10T17:49:39.221Z,26.07
2019-04-10T17:52:08.308Z,28.17
2019-04-10T17:54:37.057Z,28.17
2019-04-10T17:57:05.973Z,24.72
2019-04-10T17:59:34.918Z,23.38
2019-04-10T18:02:05.511Z,26.50
2019-04-10T18:04:34.324Z,24.23
2019-04-10T18:07:03.892Z,27.93
2019-04-10T18:09:33.430Z,27.00
2019-04-10T18:12:03.932Z,29.82
2019-04-10T18:14:36.346Z,26.27
2019-04-10T18:17:03.058Z,26.97
2019-04-10T18:19:32.370Z,26.62
2019-04-10T18:22:01.088Z,29.65
2019-04-10T18:24:30.428Z,30.88
2019-04-10T18:27:00.047Z,28.95
2019-04-10T18:29:30.949Z,30.05
2019-04-10T18:32:00.923Z,33.30
2019-04-10T18:34:30.620Z,24.63
2019-04-10T18:36:59.167Z,28.87
2019-04-10T18:39:27.797Z,28.40
2019-04-10T18:41:59.311Z,29.82
2019-04-10T18:44:26.920Z,27.35
2019-04-10T18:46:56.445Z,27.27
2019-04-10T18:49:25.081Z,28.07
2019-04-10T18:51:54.987Z,24.10
2019-04-10T18:54:24.931Z,26.37
2019-04-10T18:56:53.717Z,32.90
2019-04-10T18:59:24.723Z,27.52
2019-04-10T19:01:55.707Z,29.25
2019-04-10T19:04:30.759Z,27.95
2019-04-10T19:07:01.160Z,30.48
2019-04-10T19:09:32.485Z,30.00
2019-04-10T19:12:02.459Z,33.50
2019-04-10T19:14:34.956Z,34.50
2019-04-10T19:17:02.534Z,32.70
2019-04-10T19:19:33.101Z,28.77
2019-04-10T19:22:02.218Z,32.30
2019-04-10T19:24:32.366Z,31.07
2019-04-10T19:27:02.736Z,33.00
2019-04-10T19:29:31.805Z,28.23
2019-04-10T19:32:02.143Z,31.12
2019-04-10T19:34:31.719Z,26.95
2019-04-10T19:37:00.711Z,26.65
2019-04-10T19:39:30.013Z,32.93
2019-04-10T19:41:58.802Z,31.17
2019-04-10T19:44:28.835Z,27.95
2019-04-10T19:46:57.861Z,33.13
2019-04-10T19:49:26.602Z,28.57
2019-04-10T19:51:56.001Z,31.23
2019-04-10T19:54:26.076Z,30.90
2019-04-10T19:56:55.096Z,28.70
2019-04-10T19:59:24.923Z,40.40
2019-04-10T20:01:54.825Z,30.50
2019-04-10T20:04:24.158Z,28.75
2019-04-10T20:06:56.448Z,29.52
2019-04-10T20:09:25.271Z,27.35
2019-04-10T20:11:56.165Z,27.75
2019-04-10T20:14:24.639Z,26.50
2019-04-10T20:16:53.473Z,27.42
2019-04-10T20:19:24.528Z,24.95
2019-04-10T20:21:54.495Z,25.25
2019-04-10T20:24:25.027Z,22.75
2019-04-10T20:26:53.922Z,24.50
2019-04-10T20:29:23.281Z,24.87
2019-04-10T20:31:55.364Z,25.27
2019-04-10T20:34:24.272Z,24.87
2019-04-10T20:36:53.324Z,22.98
2019-04-10T20:39:23.257Z,26.57
2019-04-10T20:41:55.071Z,25.50
2019-04-10T20:44:22.810Z,26.60
2019-04-10T20:46:52.679Z,27.05
2019-04-10T20:49:22.486Z,25.23
2019-04-10T20:51:51.232Z,25.90
2019-04-10T20:54:20.353Z,25.27
2019-04-10T20:56:49.161Z,25.92
2019-04-10T20:59:17.648Z,26.95
2019-04-10T21:01:47.002Z,28.30
2019-04-10T21:04:15.660Z,25.45
2019-04-10T21:06:44.329Z,26.12
2019-04-10T21:09:13.031Z,26.27
2019-04-10T21:11:41.894Z,26.30
2019-04-10T21:14:12.116Z,25.35
2019-04-10T21:16:42.083Z,23.62
2019-04-10T21:19:11.118Z,26.90
2019-04-10T21:21:39.937Z,23.62
2019-04-10T21:24:09.273Z,23.92
2019-04-10T21:26:38.795Z,24.85
2019-04-10T21:29:09.600Z,27.40
2019-04-10T21:31:57.387Z,23.87
2019-04-10T21:34:30.485Z,26.20
2019-04-10T21:36:59.747Z,24.02
2019-04-10T21:39:29.646Z,25.25
2019-04-10T21:42:12.766Z,26.65
2019-04-10T21:44:31.501Z,23.42
2019-04-10T21:47:01.263Z,21.97
2019-04-10T21:49:30.332Z,22.20
2019-04-10T21:51:59.981Z,22.85
2019-04-10T21:54:29.707Z,26.93
2019-04-10T21:56:59.687Z,22.85
2019-04-10T21:59:29.005Z,23.77
2019-04-10T22:01:57.911Z,21.15
2019-04-10T22:04:27.379Z,22.73
2019-04-10T22:07:01.441Z,23.75
2019-04-10T22:09:31.861Z,24.72
2019-04-10T22:12:02.279Z,24.25
2019-04-10T22:14:31.018Z,20.68
2019-04-10T22:17:00.338Z,22.60
2019-04-10T22:19:29.137Z,23.65
2019-04-10T22:21:57.949Z,23.12
2019-04-10T22:24:26.699Z,20.92
2019-04-10T22:26:55.401Z,22.20
2019-04-10T22:29:24.208Z,23.90
2019-04-10T22:31:53.447Z,22.52
2019-04-10T22:34:22.418Z,24.43
2019-04-10T22:36:51.351Z,20.97
2019-04-10T22:39:21.828Z,21.60
2019-04-10T22:44:19.760Z,23.15
2019-04-10T22:46:48.553Z,20.70
2019-04-10T22:49:18.065Z,21.05
2019-04-10T22:51:47.088Z,22.95
2019-04-10T22:54:15.883Z,22.02
2019-04-10T22:56:45.436Z,21.02
2019-04-10T22:59:15.597Z,21.25
2019-04-10T23:01:45.333Z,22.73
2019-04-10T23:04:14.353Z,22.62
2019-04-10T23:06:43.143Z,21.77
2019-04-10T23:09:12.375Z,21.52
2019-04-10T23:11:43.525Z,20.68
2019-04-10T23:14:12.321Z,24.87
2019-04-10T23:16:41.047Z,24.55
2019-04-10T23:19:09.934Z,20.20
2019-04-10T23:21:38.762Z,21.52
2019-04-10T23:24:07.615Z,21.77
2019-04-10T23:26:37.440Z,21.42
2019-04-10T23:29:06.287Z,20.60
2019-04-10T23:31:35.036Z,22.58
2019-04-10T23:34:04.177Z,23.52
2019-04-10T23:36:33.975Z,22.42
2019-04-10T23:39:03.837Z,21.93
2019-04-10T23:41:33.695Z,21.75
2019-04-10T23:44:02.327Z,20.85
2019-04-10T23:46:31.008Z,19.98
2019-04-10T23:48:59.519Z,21.75
2019-04-10T23:51:29.297Z,21.52
2019-04-10T23:53:57.868Z,23.32
2019-04-10T23:56:27.341Z,22.10
2019-04-10T23:58:56.206Z,24.47
